sensor_id;sensor_type;location;lat;lon;timestamp;P1;durP1;ratioP1;P2;durP2;ratioP2
19560;SDS011;9927;47.792;10.616;2023-01-29T04:01:05;35.13;;;22.23;;
19560;SDS011;9927;47.792;10.616;2023-01-29T04:03:41;37.23;;;22.53;;
19560;SDS011;9927;47.792;10.616;2023-01-29T04:06:16;35.20;;;22.43;;
19560;SDS011;9927;47.792;10.616;2023-01-29T04:09:36;38.37;;;22.63;;
19560;SDS011;9927;47.792;10.616;2023-01-29T04:11:58;35.93;;;21.43;;
19560;SDS011;9927;47.792;10.616;2023-01-29T04:14:30;35.80;;;22.93;;
19560;SDS011;9927;47.792;10.616;2023-01-29T04:16:59;36.30;;;22.53;;
19560;SDS011;9927;47.792;10.616;2023-01-29T04:19:30;40.47;;;23.60;;
19560;SDS011;9927;47.792;10.616;2023-01-29T04:22:01;36.03;;;21.77;;
19560;SDS011;9927;47.792;10.616;2023-01-29T04:24:33;40.33;;;22.93;;
19560;SDS011;9927;47.792;10.616;2023-01-29T04:30:01;36.10;;;22.63;;
19560;SDS011;9927;47.792;10.616;2023-01-29T04:35:45;36.57;;;23.00;;
19560;SDS011;9927;47.792;10.616;2023-01-29T04:41:29;39.53;;;23.13;;
19560;SDS011;9927;47.792;10.616;2023-01-29T04:57:41;43.37;;;23.23;;
19560;SDS011;9927;47.792;10.616;2023-01-29T05:00:22;33.30;;;21.77;;
19560;SDS011;9927;47.792;10.616;2023-01-29T05:02:58;37.63;;;23.03;;
19560;SDS011;9927;47.792;10.616;2023-01-29T05:05:26;33.23;;;21.13;;
19560;SDS011;9927;47.792;10.616;2023-01-29T05:07:54;32.60;;;21.83;;
19560;SDS011;9927;47.792;10.616;2023-01-29T05:10:24;42.83;;;21.83;;
19560;SDS011;9927;47.792;10.616;2023-01-29T05:12:54;33.77;;;22.10;;
19560;SDS011;9927;47.792;10.616;2023-01-29T05:15:29;37.33;;;22.40;;
19560;SDS011;9927;47.792;10.616;2023-01-29T05:18:03;35.37;;;21.93;;
19560;SDS011;9927;47.792;10.616;2023-01-29T05:20:35;70.33;;;22.37;;
19560;SDS011;9927;47.792;10.616;2023-01-29T05:23:08;34.07;;;21.27;;
19560;SDS011;9927;47.792;10.616;2023-01-29T05:25:37;36.40;;;22.47;;
19560;SDS011;9927;47.792;10.616;2023-01-29T05:28:04;33.17;;;21.47;;
19560;SDS011;9927;47.792;10.616;2023-01-29T05:33:30;36.50;;;22.77;;
19560;SDS011;9927;47.792;10.616;2023-01-29T05:35:58;35.53;;;22.07;;
19560;SDS011;9927;47.792;10.616;2023-01-29T05:38:25;36.13;;;22.43;;
19560;SDS011;9927;47.792;10.616;2023-01-29T05:40:53;36.30;;;22.03;;
19560;SDS011;9927;47.792;10.616;2023-01-29T05:43:21;35.73;;;22.13;;
19560;SDS011;9927;47.792;10.616;2023-01-29T05:48:24;33.10;;;21.20;;
19560;SDS011;9927;47.792;10.616;2023-01-29T05:50:53;29.80;;;19.20;;
19560;SDS011;9927;47.792;10.616;2023-01-29T05:53:25;31.17;;;20.17;;
19560;SDS011;9927;47.792;10.616;2023-01-29T05:55:54;27.67;;;18.53;;
19560;SDS011;9927;47.792;10.616;2023-01-29T05:58:22;32.70;;;20.07;;
19560;SDS011;9927;47.792;10.616;2023-01-29T06:00:50;28.30;;;19.33;;
19560;SDS011;9927;47.792;10.616;2023-01-29T06:03:17;28.43;;;18.10;;
19560;SDS011;9927;47.792;10.616;2023-01-29T06:05:44;31.40;;;18.50;;
19560;SDS011;9927;47.792;10.616;2023-01-29T06:08:11;27.73;;;17.83;;
19560;SDS011;9927;47.792;10.616;2023-01-29T06:10:50;199.67;;;21.93;;
19560;SDS011;9927;47.792;10.616;2023-01-29T06:13:55;20.93;;;15.27;;
19560;SDS011;9927;47.792;10.616;2023-01-29T06:16:23;19.23;;;14.00;;
19560;SDS011;9927;47.792;10.616;2023-01-29T06:18:50;20.00;;;14.03;;
19560;SDS011;9927;47.792;10.616;2023-01-29T06:21:17;15.70;;;11.73;;
19560;SDS011;9927;47.792;10.616;2023-01-29T06:23:45;17.63;;;13.30;;
19560;SDS011;9927;47.792;10.616;2023-01-29T06:26:13;16.73;;;13.03;;
19560;SDS011;9927;47.792;10.616;2023-01-29T06:28:41;17.37;;;13.07;;
19560;SDS011;9927;47.792;10.616;2023-01-29T06:31:09;19.07;;;13.23;;
19560;SDS011;9927;47.792;10.616;2023-01-29T06:33:56;19.20;;;13.10;;
19560;SDS011;9927;47.792;10.616;2023-01-29T06:36:24;19.90;;;13.53;;
19560;SDS011;9927;47.792;10.616;2023-01-29T06:38:51;19.43;;;14.20;;
19560;SDS011;9927;47.792;10.616;2023-01-29T06:41:18;19.13;;;13.10;;
19560;SDS011;9927;47.792;10.616;2023-01-29T06:43:50;18.13;;;12.57;;
19560;SDS011;9927;47.792;10.616;2023-01-29T06:46:18;14.27;;;11.00;;
19560;SDS011;9927;47.792;10.616;2023-01-29T06:48:45;14.07;;;11.33;;
19560;SDS011;9927;47.792;10.616;2023-01-29T06:51:13;13.67;;;10.97;;
19560;SDS011;9927;47.792;10.616;2023-01-29T06:53:40;15.20;;;11.80;;
19560;SDS011;9927;47.792;10.616;2023-01-29T06:56:11;21.47;;;15.60;;
19560;SDS011;9927;47.792;10.616;2023-01-29T06:58:38;17.27;;;13.83;;
19560;SDS011;9927;47.792;10.616;2023-01-29T07:01:06;19.97;;;15.03;;
19560;SDS011;9927;47.792;10.616;2023-01-29T07:03:35;23.27;;;15.53;;
19560;SDS011;9927;47.792;10.616;2023-01-29T07:06:03;22.37;;;16.40;;
19560;SDS011;9927;47.792;10.616;2023-01-29T07:08:34;20.80;;;15.43;;
19560;SDS011;9927;47.792;10.616;2023-01-29T07:11:07;39.17;;;16.73;;
19560;SDS011;9927;47.792;10.616;2023-01-29T07:13:35;16.60;;;12.70;;
19560;SDS011;9927;47.792;10.616;2023-01-29T07:16:03;17.23;;;13.17;;
19560;SDS011;9927;47.792;10.616;2023-01-29T07:18:31;17.60;;;13.17;;
19560;SDS011;9927;47.792;10.616;2023-01-29T07:20:58;18.53;;;13.73;;
19560;SDS011;9927;47.792;10.616;2023-01-29T07:23:32;16.87;;;12.63;;
19560;SDS011;9927;47.792;10.616;2023-01-29T07:26:01;16.47;;;13.20;;
19560;SDS011;9927;47.792;10.616;2023-01-29T07:28:30;16.00;;;12.60;;
19560;SDS011;9927;47.792;10.616;2023-01-29T07:31:15;196.27;;;19.73;;
19560;SDS011;9927;47.792;10.616;2023-01-29T07:33:43;15.03;;;11.67;;
19560;SDS011;9927;47.792;10.616;2023-01-29T07:36:11;15.53;;;12.47;;
19560;SDS011;9927;47.792;10.616;2023-01-29T07:38:38;14.43;;;11.90;;
19560;SDS011;9927;47.792;10.616;2023-01-29T07:41:05;16.50;;;12.33;;
19560;SDS011;9927;47.792;10.616;2023-01-29T07:43:33;11.50;;;10.27;;
19560;SDS011;9927;47.792;10.616;2023-01-29T07:46:01;15.17;;;12.00;;
19560;SDS011;9927;47.792;10.616;2023-01-29T07:48:29;14.53;;;12.17;;
19560;SDS011;9927;47.792;10.616;2023-01-29T07:50:57;14.30;;;11.90;;
19560;SDS011;9927;47.792;10.616;2023-01-29T07:53:26;15.57;;;13.40;;
19560;SDS011;9927;47.792;10.616;2023-01-29T07:55:54;16.00;;;12.40;;
19560;SDS011;9927;47.792;10.616;2023-01-29T07:58:22;15.53;;;12.33;;
19560;SDS011;9927;47.792;10.616;2023-01-29T08:00:49;14.70;;;12.00;;
19560;SDS011;9927;47.792;10.616;2023-01-29T08:03:17;14.30;;;11.73;;
19560;SDS011;9927;47.792;10.616;2023-01-29T08:05:46;14.97;;;12.30;;
19560;SDS011;9927;47.792;10.616;2023-01-29T08:08:13;16.90;;;13.73;;
19560;SDS011;9927;47.792;10.616;2023-01-29T08:10:41;30.20;;;15.63;;
19560;SDS011;9927;47.792;10.616;2023-01-29T08:13:08;23.70;;;16.57;;
19560;SDS011;9927;47.792;10.616;2023-01-29T08:15:35;22.87;;;16.37;;
19560;SDS011;9927;47.792;10.616;2023-01-29T08:18:22;27.40;;;18.60;;
19560;SDS011;9927;47.792;10.616;2023-01-29T08:20:49;27.13;;;17.90;;
19560;SDS011;9927;47.792;10.616;2023-01-29T08:23:18;26.27;;;18.47;;
19560;SDS011;9927;47.792;10.616;2023-01-29T08:25:45;26.00;;;18.57;;
19560;SDS011;9927;47.792;10.616;2023-01-29T08:28:13;23.27;;;16.73;;
19560;SDS011;9927;47.792;10.616;2023-01-29T08:30:40;28.43;;;17.17;;
19560;SDS011;9927;47.792;10.616;2023-01-29T08:33:07;24.27;;;17.70;;
19560;SDS011;9927;47.792;10.616;2023-01-29T08:35:34;28.40;;;18.03;;
19560;SDS011;9927;47.792;10.616;2023-01-29T08:38:03;26.90;;;18.70;;
19560;SDS011;9927;47.792;10.616;2023-01-29T08:40:31;43.07;;;19.20;;
19560;SDS011;9927;47.792;10.616;2023-01-29T08:43:00;22.97;;;16.63;;
19560;SDS011;9927;47.792;10.616;2023-01-29T08:45:34;20.07;;;15.23;;
19560;SDS011;9927;47.792;10.616;2023-01-29T08:48:11;16.60;;;13.27;;
19560;SDS011;9927;47.792;10.616;2023-01-29T08:50:38;42.47;;;13.87;;
19560;SDS011;9927;47.792;10.616;2023-01-29T08:53:06;15.80;;;12.63;;
19560;SDS011;9927;47.792;10.616;2023-01-29T08:55:35;16.87;;;12.67;;
19560;SDS011;9927;47.792;10.616;2023-01-29T08:58:04;17.20;;;13.60;;
19560;SDS011;9927;47.792;10.616;2023-01-29T09:00:33;19.40;;;11.93;;
19560;SDS011;9927;47.792;10.616;2023-01-29T09:03:00;16.60;;;12.67;;
19560;SDS011;9927;47.792;10.616;2023-01-29T09:05:28;16.70;;;12.80;;
19560;SDS011;9927;47.792;10.616;2023-01-29T09:07:56;16.93;;;13.60;;
19560;SDS011;9927;47.792;10.616;2023-01-29T09:10:24;15.17;;;13.07;;
19560;SDS011;9927;47.792;10.616;2023-01-29T09:12:51;15.70;;;12.63;;
19560;SDS011;9927;47.792;10.616;2023-01-29T09:15:18;14.80;;;12.50;;
19560;SDS011;9927;47.792;10.616;2023-01-29T09:17:45;15.90;;;12.13;;
19560;SDS011;9927;47.792;10.616;2023-01-29T09:20:17;15.47;;;12.63;;
19560;SDS011;9927;47.792;10.616;2023-01-29T09:22:45;14.97;;;12.47;;
19560;SDS011;9927;47.792;10.616;2023-01-29T09:25:13;15.83;;;11.53;;
19560;SDS011;9927;47.792;10.616;2023-01-29T09:27:41;16.43;;;12.23;;
19560;SDS011;9927;47.792;10.616;2023-01-29T09:30:08;15.13;;;11.93;;
19560;SDS011;9927;47.792;10.616;2023-01-29T09:32:36;15.50;;;12.37;;
19560;SDS011;9927;47.792;10.616;2023-01-29T09:35:21;15.87;;;12.53;;
19560;SDS011;9927;47.792;10.616;2023-01-29T09:37:49;15.40;;;13.07;;
19560;SDS011;9927;47.792;10.616;2023-01-29T09:42:57;14.83;;;11.80;;
19560;SDS011;9927;47.792;10.616;2023-01-29T09:45:33;14.93;;;12.80;;
19560;SDS011;9927;47.792;10.616;2023-01-29T09:48:07;17.47;;;13.67;;
19560;SDS011;9927;47.792;10.616;2023-01-29T09:50:39;19.57;;;14.73;;
19560;SDS011;9927;47.792;10.616;2023-01-29T09:53:19;17.80;;;13.03;;
19560;SDS011;9927;47.792;10.616;2023-01-29T09:56:00;14.97;;;12.47;;
19560;SDS011;9927;47.792;10.616;2023-01-29T09:58:37;14.17;;;12.33;;
19560;SDS011;9927;47.792;10.616;2023-01-29T10:15:43;14.77;;;12.43;;
19560;SDS011;9927;47.792;10.616;2023-01-29T10:23:33;14.27;;;12.17;;
19560;SDS011;9927;47.792;10.616;2023-01-29T10:26:11;16.30;;;13.00;;
19560;SDS011;9927;47.792;10.616;2023-01-29T10:28:43;17.70;;;14.43;;
19560;SDS011;9927;47.792;10.616;2023-01-29T10:31:21;20.33;;;14.13;;
19560;SDS011;9927;47.792;10.616;2023-01-29T10:37:18;12.90;;;10.83;;
19560;SDS011;9927;47.792;10.616;2023-01-29T10:39:50;13.90;;;11.80;;
19560;SDS011;9927;47.792;10.616;2023-01-29T10:42:38;13.20;;;11.73;;
19560;SDS011;9927;47.792;10.616;2023-01-29T10:56:05;13.67;;;11.63;;
19560;SDS011;9927;47.792;10.616;2023-01-29T10:58:51;12.73;;;11.33;;
19560;SDS011;9927;47.792;10.616;2023-01-29T11:01:19;13.80;;;11.33;;
19560;SDS011;9927;47.792;10.616;2023-01-29T11:03:53;13.73;;;11.67;;
19560;SDS011;9927;47.792;10.616;2023-01-29T11:06:27;19.10;;;12.73;;
19560;SDS011;9927;47.792;10.616;2023-01-29T11:09:12;12.03;;;10.50;;
19560;SDS011;9927;47.792;10.616;2023-01-29T11:12:02;13.40;;;12.00;;
19560;SDS011;9927;47.792;10.616;2023-01-29T11:17:15;11.50;;;10.40;;
19560;SDS011;9927;47.792;10.616;2023-01-29T11:19:47;10.97;;;9.87;;
19560;SDS011;9927;47.792;10.616;2023-01-29T11:22:20;11.63;;;10.30;;
19560;SDS011;9927;47.792;10.616;2023-01-29T11:27:45;12.30;;;11.00;;
19560;SDS011;9927;47.792;10.616;2023-01-29T11:30:19;11.17;;;10.03;;
19560;SDS011;9927;47.792;10.616;2023-01-29T11:35:35;14.03;;;10.87;;
19560;SDS011;9927;47.792;10.616;2023-01-29T11:38:45;11.93;;;10.73;;
19560;SDS011;9927;47.792;10.616;2023-01-29T11:41:04;16.07;;;11.17;;
19560;SDS011;9927;47.792;10.616;2023-01-29T11:43:33;12.13;;;10.20;;
19560;SDS011;9927;47.792;10.616;2023-01-29T11:46:04;12.47;;;10.73;;
19560;SDS011;9927;47.792;10.616;2023-01-29T11:51:25;12.67;;;11.00;;
19560;SDS011;9927;47.792;10.616;2023-01-29T11:53:55;12.93;;;10.63;;
19560;SDS011;9927;47.792;10.616;2023-01-29T11:56:28;12.67;;;10.93;;
19560;SDS011;9927;47.792;10.616;2023-01-29T11:59:01;12.47;;;10.53;;
19560;SDS011;9927;47.792;10.616;2023-01-29T12:01:32;13.30;;;10.83;;
19560;SDS011;9927;47.792;10.616;2023-01-29T12:04:22;11.97;;;10.40;;
19560;SDS011;9927;47.792;10.616;2023-01-29T12:06:51;12.07;;;10.53;;
19560;SDS011;9927;47.792;10.616;2023-01-29T12:09:23;13.00;;;11.17;;
19560;SDS011;9927;47.792;10.616;2023-01-29T12:11:53;14.60;;;10.77;;
19560;SDS011;9927;47.792;10.616;2023-01-29T12:16:57;11.37;;;10.00;;
19560;SDS011;9927;47.792;10.616;2023-01-29T12:22:22;11.00;;;9.80;;
19560;SDS011;9927;47.792;10.616;2023-01-29T12:25:02;11.60;;;10.40;;
19560;SDS011;9927;47.792;10.616;2023-01-29T12:27:47;14.00;;;10.60;;
19560;SDS011;9927;47.792;10.616;2023-01-29T12:33:11;12.80;;;11.20;;
19560;SDS011;9927;47.792;10.616;2023-01-29T12:36:02;13.37;;;10.83;;
19560;SDS011;9927;47.792;10.616;2023-01-29T12:38:37;12.40;;;10.60;;
19560;SDS011;9927;47.792;10.616;2023-01-29T12:41:07;12.97;;;11.20;;
19560;SDS011;9927;47.792;10.616;2023-01-29T12:43:48;19.50;;;11.53;;
19560;SDS011;9927;47.792;10.616;2023-01-29T12:46:32;15.67;;;11.83;;
19560;SDS011;9927;47.792;10.616;2023-01-29T12:49:08;15.23;;;13.17;;
19560;SDS011;9927;47.792;10.616;2023-01-29T12:55:27;14.97;;;13.03;;
19560;SDS011;9927;47.792;10.616;2023-01-29T12:57:35;15.50;;;13.00;;
19560;SDS011;9927;47.792;10.616;2023-01-29T13:00:15;14.03;;;12.13;;
19560;SDS011;9927;47.792;10.616;2023-01-29T13:05:19;14.23;;;11.73;;
19560;SDS011;9927;47.792;10.616;2023-01-29T13:08:13;14.50;;;12.10;;
19560;SDS011;9927;47.792;10.616;2023-01-29T13:10:47;12.50;;;11.20;;
19560;SDS011;9927;47.792;10.616;2023-01-29T13:13:27;13.03;;;11.60;;
19560;SDS011;9927;47.792;10.616;2023-01-29T13:15:58;14.07;;;11.80;;
19560;SDS011;9927;47.792;10.616;2023-01-29T13:18:42;13.30;;;11.73;;
19560;SDS011;9927;47.792;10.616;2023-01-29T13:21:12;15.53;;;12.70;;
19560;SDS011;9927;47.792;10.616;2023-01-29T13:23:54;14.63;;;11.93;;
19560;SDS011;9927;47.792;10.616;2023-01-29T13:26:25;14.77;;;12.47;;
19560;SDS011;9927;47.792;10.616;2023-01-29T13:28:53;15.27;;;12.27;;
19560;SDS011;9927;47.792;10.616;2023-01-29T13:39:50;16.87;;;12.93;;
19560;SDS011;9927;47.792;10.616;2023-01-29T13:42:20;13.67;;;12.20;;
19560;SDS011;9927;47.792;10.616;2023-01-29T13:45:08;17.20;;;13.17;;
19560;SDS011;9927;47.792;10.616;2023-01-29T13:47:47;17.03;;;12.83;;
19560;SDS011;9927;47.792;10.616;2023-01-29T13:50:17;24.33;;;16.83;;
19560;SDS011;9927;47.792;10.616;2023-01-29T13:52:58;18.97;;;14.27;;
19560;SDS011;9927;47.792;10.616;2023-01-29T13:55:34;18.13;;;14.70;;
19560;SDS011;9927;47.792;10.616;2023-01-29T13:58:03;21.00;;;15.80;;
19560;SDS011;9927;47.792;10.616;2023-01-29T14:13:43;19.27;;;15.03;;
19560;SDS011;9927;47.792;10.616;2023-01-29T14:23:52;18.60;;;14.93;;
19560;SDS011;9927;47.792;10.616;2023-01-29T14:26:29;19.57;;;15.33;;
19560;SDS011;9927;47.792;10.616;2023-01-29T14:34:34;20.87;;;16.20;;
19560;SDS011;9927;47.792;10.616;2023-01-29T14:39:44;20.80;;;15.87;;
19560;SDS011;9927;47.792;10.616;2023-01-29T14:42:16;21.13;;;16.00;;
19560;SDS011;9927;47.792;10.616;2023-01-29T14:44:45;21.23;;;16.00;;
19560;SDS011;9927;47.792;10.616;2023-01-29T14:47:17;21.80;;;16.67;;
19560;SDS011;9927;47.792;10.616;2023-01-29T14:52:38;21.33;;;17.37;;
19560;SDS011;9927;47.792;10.616;2023-01-29T14:55:13;21.90;;;16.57;;
19560;SDS011;9927;47.792;10.616;2023-01-29T14:57:52;23.33;;;15.60;;
19560;SDS011;9927;47.792;10.616;2023-01-29T15:00:27;24.73;;;17.90;;
19560;SDS011;9927;47.792;10.616;2023-01-29T15:03:00;23.40;;;17.17;;
19560;SDS011;9927;47.792;10.616;2023-01-29T15:05:30;23.27;;;16.93;;
19560;SDS011;9927;47.792;10.616;2023-01-29T15:10:47;27.60;;;17.33;;
19560;SDS011;9927;47.792;10.616;2023-01-29T15:13:55;23.13;;;17.90;;
19560;SDS011;9927;47.792;10.616;2023-01-29T15:16:30;24.47;;;16.37;;
19560;SDS011;9927;47.792;10.616;2023-01-29T15:19:22;21.23;;;16.37;;
19560;SDS011;9927;47.792;10.616;2023-01-29T15:22:04;24.53;;;15.60;;
19560;SDS011;9927;47.792;10.616;2023-01-29T15:24:34;21.77;;;16.43;;
19560;SDS011;9927;47.792;10.616;2023-01-29T15:27:02;23.73;;;16.43;;
19560;SDS011;9927;47.792;10.616;2023-01-29T15:29:29;23.33;;;16.77;;
19560;SDS011;9927;47.792;10.616;2023-01-29T15:31:57;27.13;;;17.37;;
19560;SDS011;9927;47.792;10.616;2023-01-29T15:34:25;22.80;;;16.47;;
19560;SDS011;9927;47.792;10.616;2023-01-29T15:36:52;26.17;;;17.63;;
19560;SDS011;9927;47.792;10.616;2023-01-29T15:39:20;24.13;;;16.83;;
19560;SDS011;9927;47.792;10.616;2023-01-29T15:41:49;23.60;;;17.33;;
19560;SDS011;9927;47.792;10.616;2023-01-29T15:44:30;24.87;;;16.77;;
19560;SDS011;9927;47.792;10.616;2023-01-29T15:46:58;25.07;;;17.17;;
19560;SDS011;9927;47.792;10.616;2023-01-29T15:49:30;25.67;;;17.30;;
19560;SDS011;9927;47.792;10.616;2023-01-29T15:52:03;25.20;;;17.33;;
19560;SDS011;9927;47.792;10.616;2023-01-29T15:54:33;24.77;;;17.03;;
19560;SDS011;9927;47.792;10.616;2023-01-29T15:57:01;26.83;;;17.37;;
19560;SDS011;9927;47.792;10.616;2023-01-29T15:59:30;22.73;;;16.67;;
19560;SDS011;9927;47.792;10.616;2023-01-29T16:05:46;25.40;;;17.50;;
19560;SDS011;9927;47.792;10.616;2023-01-29T16:07:55;26.37;;;18.67;;
19560;SDS011;9927;47.792;10.616;2023-01-29T16:10:29;25.27;;;18.10;;
19560;SDS011;9927;47.792;10.616;2023-01-29T16:12:57;27.27;;;19.20;;
19560;SDS011;9927;47.792;10.616;2023-01-29T16:15:27;28.07;;;18.63;;
19560;SDS011;9927;47.792;10.616;2023-01-29T16:18:04;29.83;;;18.77;;
19560;SDS011;9927;47.792;10.616;2023-01-29T16:20:51;26.80;;;18.47;;
19560;SDS011;9927;47.792;10.616;2023-01-29T16:23:27;26.10;;;17.93;;
19560;SDS011;9927;47.792;10.616;2023-01-29T16:26:00;25.17;;;17.73;;
19560;SDS011;9927;47.792;10.616;2023-01-29T16:28:31;24.40;;;17.77;;
19560;SDS011;9927;47.792;10.616;2023-01-29T16:30:58;26.60;;;17.63;;
19560;SDS011;9927;47.792;10.616;2023-01-29T16:33:32;23.40;;;16.57;;
19560;SDS011;9927;47.792;10.616;2023-01-29T16:36:02;24.27;;;16.57;;
19560;SDS011;9927;47.792;10.616;2023-01-29T16:38:37;25.13;;;16.40;;
19560;SDS011;9927;47.792;10.616;2023-01-29T16:46:46;26.03;;;17.47;;
19560;SDS011;9927;47.792;10.616;2023-01-29T16:51:52;27.10;;;18.20;;
19560;SDS011;9927;47.792;10.616;2023-01-29T16:54:25;30.13;;;18.63;;
19560;SDS011;9927;47.792;10.616;2023-01-29T16:56:57;29.53;;;18.93;;
19560;SDS011;9927;47.792;10.616;2023-01-29T16:59:30;29.20;;;18.90;;
19560;SDS011;9927;47.792;10.616;2023-01-29T17:02:01;28.83;;;18.43;;
19560;SDS011;9927;47.792;10.616;2023-01-29T17:04:29;26.73;;;18.20;;
19560;SDS011;9927;47.792;10.616;2023-01-29T17:06:57;32.27;;;20.77;;
19560;SDS011;9927;47.792;10.616;2023-01-29T17:09:30;38.33;;;23.47;;
19560;SDS011;9927;47.792;10.616;2023-01-29T17:12:01;35.63;;;23.83;;
19560;SDS011;9927;47.792;10.616;2023-01-29T17:14:31;38.93;;;24.13;;
19560;SDS011;9927;47.792;10.616;2023-01-29T17:17:03;36.97;;;24.17;;
19560;SDS011;9927;47.792;10.616;2023-01-29T17:19:40;34.37;;;23.63;;
19560;SDS011;9927;47.792;10.616;2023-01-29T17:22:08;33.93;;;21.57;;
19560;SDS011;9927;47.792;10.616;2023-01-29T17:24:40;33.40;;;22.13;;
19560;SDS011;9927;47.792;10.616;2023-01-29T17:27:17;34.37;;;22.10;;
19560;SDS011;9927;47.792;10.616;2023-01-29T17:29:47;42.37;;;24.73;;
19560;SDS011;9927;47.792;10.616;2023-01-29T17:32:15;36.77;;;25.27;;
19560;SDS011;9927;47.792;10.616;2023-01-29T17:34:45;33.17;;;22.63;;
19560;SDS011;9927;47.792;10.616;2023-01-29T17:37:13;32.30;;;20.60;;
19560;SDS011;9927;47.792;10.616;2023-01-29T17:39:42;31.90;;;20.47;;
19560;SDS011;9927;47.792;10.616;2023-01-29T17:42:11;32.10;;;20.43;;
19560;SDS011;9927;47.792;10.616;2023-01-29T17:44:40;28.77;;;19.93;;
19560;SDS011;9927;47.792;10.616;2023-01-29T17:47:11;30.77;;;20.63;;
19560;SDS011;9927;47.792;10.616;2023-01-29T17:49:40;30.97;;;20.93;;
19560;SDS011;9927;47.792;10.616;2023-01-29T17:52:08;31.67;;;19.97;;
19560;SDS011;9927;47.792;10.616;2023-01-29T17:54:35;35.47;;;21.47;;
19560;SDS011;9927;47.792;10.616;2023-01-29T17:57:02;35.70;;;22.23;;
19560;SDS011;9927;47.792;10.616;2023-01-29T17:59:31;37.43;;;22.80;;
19560;SDS011;9927;47.792;10.616;2023-01-29T18:01:59;38.53;;;23.10;;
19560;SDS011;9927;47.792;10.616;2023-01-29T18:04:26;37.50;;;22.57;;
19560;SDS011;9927;47.792;10.616;2023-01-29T18:06:53;39.63;;;23.10;;
19560;SDS011;9927;47.792;10.616;2023-01-29T18:09:23;42.37;;;26.53;;
19560;SDS011;9927;47.792;10.616;2023-01-29T18:11:50;47.80;;;24.93;;
19560;SDS011;9927;47.792;10.616;2023-01-29T18:14:18;53.63;;;27.60;;
19560;SDS011;9927;47.792;10.616;2023-01-29T18:16:46;45.80;;;26.20;;
19560;SDS011;9927;47.792;10.616;2023-01-29T18:19:15;50.73;;;25.97;;
19560;SDS011;9927;47.792;10.616;2023-01-29T18:21:47;52.83;;;26.80;;
19560;SDS011;9927;47.792;10.616;2023-01-29T18:24:15;52.23;;;27.10;;
19560;SDS011;9927;47.792;10.616;2023-01-29T18:26:43;52.57;;;27.83;;
19560;SDS011;9927;47.792;10.616;2023-01-29T18:29:10;58.87;;;29.10;;
19560;SDS011;9927;47.792;10.616;2023-01-29T18:31:37;63.87;;;29.73;;
19560;SDS011;9927;47.792;10.616;2023-01-29T18:34:05;70.30;;;33.13;;
19560;SDS011;9927;47.792;10.616;2023-01-29T18:36:32;69.17;;;33.17;;
19560;SDS011;9927;47.792;10.616;2023-01-29T18:38:59;54.87;;;28.97;;
19560;SDS011;9927;47.792;10.616;2023-01-29T18:41:26;57.93;;;28.47;;
19560;SDS011;9927;47.792;10.616;2023-01-29T18:43:53;52.40;;;29.00;;
19560;SDS011;9927;47.792;10.616;2023-01-29T18:46:21;59.80;;;30.00;;
19560;SDS011;9927;47.792;10.616;2023-01-29T18:48:49;55.67;;;28.93;;
19560;SDS011;9927;47.792;10.616;2023-01-29T18:51:17;44.67;;;27.07;;
19560;SDS011;9927;47.792;10.616;2023-01-29T18:53:47;57.10;;;29.20;;
19560;SDS011;9927;47.792;10.616;2023-01-29T18:56:16;55.27;;;28.23;;
19560;SDS011;9927;47.792;10.616;2023-01-29T18:58:44;55.27;;;26.63;;
19560;SDS011;9927;47.792;10.616;2023-01-29T19:01:20;50.63;;;25.13;;
19560;SDS011;9927;47.792;10.616;2023-01-29T19:03:48;50.57;;;25.73;;
19560;SDS011;9927;47.792;10.616;2023-01-29T19:06:16;75.37;;;29.70;;
19560;SDS011;9927;47.792;10.616;2023-01-29T19:08:43;62.70;;;26.80;;
19560;SDS011;9927;47.792;10.616;2023-01-29T19:11:10;52.63;;;26.37;;
19560;SDS011;9927;47.792;10.616;2023-01-29T19:13:38;57.83;;;26.80;;
19560;SDS011;9927;47.792;10.616;2023-01-29T19:16:07;68.10;;;28.80;;
19560;SDS011;9927;47.792;10.616;2023-01-29T19:18:35;55.00;;;25.77;;
19560;SDS011;9927;47.792;10.616;2023-01-29T19:21:12;68.13;;;29.10;;
19560;SDS011;9927;47.792;10.616;2023-01-29T19:23:41;65.47;;;27.30;;
19560;SDS011;9927;47.792;10.616;2023-01-29T19:26:10;76.53;;;29.07;;
19560;SDS011;9927;47.792;10.616;2023-01-29T19:28:39;70.73;;;28.97;;
19560;SDS011;9927;47.792;10.616;2023-01-29T19:31:06;70.43;;;28.30;;
19560;SDS011;9927;47.792;10.616;2023-01-29T19:33:34;68.47;;;28.10;;
19560;SDS011;9927;47.792;10.616;2023-01-29T19:36:02;69.40;;;28.30;;
19560;SDS011;9927;47.792;10.616;2023-01-29T19:38:29;60.23;;;27.97;;
19560;SDS011;9927;47.792;10.616;2023-01-29T19:40:59;64.20;;;29.30;;
19560;SDS011;9927;47.792;10.616;2023-01-29T19:43:29;55.70;;;29.33;;
19560;SDS011;9927;47.792;10.616;2023-01-29T19:45:57;62.67;;;30.17;;
19560;SDS011;9927;47.792;10.616;2023-01-29T19:48:26;55.17;;;28.67;;
19560;SDS011;9927;47.792;10.616;2023-01-29T19:50:54;54.80;;;28.43;;
19560;SDS011;9927;47.792;10.616;2023-01-29T19:53:28;50.23;;;25.27;;
19560;SDS011;9927;47.792;10.616;2023-01-29T19:55:57;57.87;;;27.00;;
19560;SDS011;9927;47.792;10.616;2023-01-29T19:58:26;66.60;;;29.97;;
19560;SDS011;9927;47.792;10.616;2023-01-29T20:00:54;67.00;;;30.00;;
19560;SDS011;9927;47.792;10.616;2023-01-29T20:03:22;75.07;;;32.17;;
19560;SDS011;9927;47.792;10.616;2023-01-29T20:05:50;65.17;;;29.53;;
19560;SDS011;9927;47.792;10.616;2023-01-29T20:08:17;64.97;;;30.63;;
19560;SDS011;9927;47.792;10.616;2023-01-29T20:10:45;70.27;;;31.53;;
19560;SDS011;9927;47.792;10.616;2023-01-29T20:13:14;59.73;;;27.83;;
19560;SDS011;9927;47.792;10.616;2023-01-29T20:15:45;57.10;;;27.57;;
19560;SDS011;9927;47.792;10.616;2023-01-29T20:18:13;57.23;;;29.10;;
19560;SDS011;9927;47.792;10.616;2023-01-29T20:20:42;54.47;;;27.67;;
19560;SDS011;9927;47.792;10.616;2023-01-29T20:23:11;45.97;;;26.63;;
19560;SDS011;9927;47.792;10.616;2023-01-29T20:25:41;55.33;;;27.63;;
19560;SDS011;9927;47.792;10.616;2023-01-29T20:28:11;62.20;;;27.50;;
19560;SDS011;9927;47.792;10.616;2023-01-29T20:30:41;69.80;;;31.83;;
19560;SDS011;9927;47.792;10.616;2023-01-29T20:33:10;69.90;;;30.10;;
19560;SDS011;9927;47.792;10.616;2023-01-29T20:35:38;58.30;;;28.10;;
19560;SDS011;9927;47.792;10.616;2023-01-29T20:38:05;65.30;;;28.00;;
19560;SDS011;9927;47.792;10.616;2023-01-29T20:40:33;52.07;;;25.80;;
19560;SDS011;9927;47.792;10.616;2023-01-29T20:43:00;50.93;;;24.10;;
19560;SDS011;9927;47.792;10.616;2023-01-29T20:45:27;63.67;;;26.50;;
19560;SDS011;9927;47.792;10.616;2023-01-29T20:47:56;49.40;;;24.77;;
19560;SDS011;9927;47.792;10.616;2023-01-29T20:50:23;41.93;;;23.80;;
19560;SDS011;9927;47.792;10.616;2023-01-29T20:52:51;50.77;;;24.33;;
19560;SDS011;9927;47.792;10.616;2023-01-29T20:55:18;50.77;;;25.70;;
19560;SDS011;9927;47.792;10.616;2023-01-29T20:57:46;44.30;;;23.93;;
19560;SDS011;9927;47.792;10.616;2023-01-29T21:00:32;57.53;;;24.83;;
19560;SDS011;9927;47.792;10.616;2023-01-29T21:02:59;59.83;;;24.67;;
19560;SDS011;9927;47.792;10.616;2023-01-29T21:05:26;56.43;;;24.70;;
19560;SDS011;9927;47.792;10.616;2023-01-29T21:07:54;63.87;;;24.40;;
19560;SDS011;9927;47.792;10.616;2023-01-29T21:10:21;42.63;;;22.43;;